KLM49Q GCRR-GCXO
Flight info
| Callsign | KLM49Q |
|---|---|
| Flight time | N/A |
| Altitude | 25000 |
| Route | LARYS |
| Aircraft | B738/M-SDE2E3FGHIRWXY/LB1 |
Departure
| Time | 2026-05-03 20:50 |
|---|---|
| Airport | César Manrique-Lanzarote Airport (GCRR) |
Arrival
| Time | N/A |
|---|---|
| Airport | Tenerife Norte-Ciudad de La Laguna Airport (GCXO) |
| Time | Latitude | Longitude | Altitude | Speed | Heading |
|---|---|---|---|---|---|
| 2026-05-03 20:30 | 28.94966 | -13.60777 | 49 ft | 0 kts | 296° |
| 2026-05-03 20:40 | 28.94957 | -13.60757 | 48 ft | 4 kts | 300° |
| 2026-05-03 20:41 | 28.94943 | -13.60731 | 49 ft | 4 kts | 307° |
| 2026-05-03 20:41 | 28.94925 | -13.60708 | 45 ft | 4 kts | 324° |
| 2026-05-03 20:41 | 28.94904 | -13.60698 | 47 ft | 4 kts | 20° |
| 2026-05-03 20:41 | 28.94900 | -13.60700 | 47 ft | 1 kts | 29° |
| 2026-05-03 20:44 | 28.94907 | -13.60674 | 47 ft | 5 kts | 97° |
| 2026-05-03 20:44 | 28.94893 | -13.60633 | 46 ft | 7 kts | 115° |
| 2026-05-03 20:44 | 28.94849 | -13.60569 | 49 ft | 12 kts | 165° |
| 2026-05-03 20:45 | 28.94774 | -13.60599 | 49 ft | 11 kts | 206° |
| 2026-05-03 20:45 | 28.94702 | -13.60638 | 47 ft | 11 kts | 206° |
| 2026-05-03 20:45 | 28.94625 | -13.60682 | 44 ft | 14 kts | 207° |
| 2026-05-03 20:45 | 28.94524 | -13.60741 | 37 ft | 19 kts | 207° |
| 2026-05-03 20:46 | 28.94399 | -13.60813 | 29 ft | 21 kts | 206° |
| 2026-05-03 20:46 | 28.94271 | -13.60886 | 28 ft | 19 kts | 206° |
| 2026-05-03 20:46 | 28.94154 | -13.60955 | 29 ft | 18 kts | 207° |
| 2026-05-03 20:46 | 28.94043 | -13.61021 | 29 ft | 18 kts | 207° |
| 2026-05-03 20:47 | 28.93936 | -13.61085 | 26 ft | 17 kts | 206° |
| 2026-05-03 20:47 | 28.93842 | -13.61137 | 23 ft | 13 kts | 206° |
| 2026-05-03 20:47 | 28.93771 | -13.61177 | 23 ft | 10 kts | 207° |
| 2026-05-03 20:47 | 28.93714 | -13.61211 | 25 ft | 9 kts | 209° |
| 2026-05-03 20:48 | 28.93673 | -13.61222 | 23 ft | 0 kts | 162° |
| 2026-05-03 20:49 | 28.93670 | -13.61220 | 23 ft | 3 kts | 158° |
| 2026-05-03 20:49 | 28.93631 | -13.61158 | 23 ft | 12 kts | 115° |
| 2026-05-03 20:49 | 28.93618 | -13.61067 | 23 ft | 12 kts | 62° |
| 2026-05-03 20:49 | 28.93689 | -13.61017 | 24 ft | 14 kts | 26° |
| 2026-05-03 20:50 | 28.93996 | -13.60844 | 27 ft | 91 kts | 26° |
| 2026-05-03 20:50 | 28.94795 | -13.60384 | 49 ft | 162 kts | 25° |
| 2026-05-03 20:50 | 28.95843 | -13.59706 | 795 ft | 175 kts | 31° |
| 2026-05-03 20:50 | 28.96834 | -13.58855 | 1919 ft | 175 kts | 37° |
| 2026-05-03 20:51 | 28.97765 | -13.58018 | 2898 ft | 177 kts | 36° |
| 2026-05-03 20:51 | 28.98844 | -13.57119 | 3225 ft | 205 kts | 34° |
| 2026-05-03 20:51 | 29.00089 | -13.56109 | 3426 ft | 234 kts | 33° |
| 2026-05-03 20:51 | 29.01315 | -13.54743 | 3826 ft | 258 kts | 58° |
| 2026-05-03 20:52 | 29.01847 | -13.52741 | 4604 ft | 267 kts | 75° |
| 2026-05-03 20:52 | 29.02642 | -13.50840 | 5319 ft | 268 kts | 42° |
| 2026-05-03 20:52 | 29.04065 | -13.49499 | 6080 ft | 272 kts | 37° |
| 2026-05-03 20:52 | 29.05506 | -13.48034 | 6792 ft | 281 kts | 40° |
| 2026-05-03 20:53 | 29.06913 | -13.46448 | 7504 ft | 287 kts | 43° |
| 2026-05-03 20:53 | 29.08318 | -13.44793 | 8286 ft | 290 kts | 44° |
| 2026-05-03 20:53 | 29.09785 | -13.43183 | 8973 ft | 296 kts | 32° |
| 2026-05-03 20:53 | 29.11663 | -13.42378 | 9685 ft | 292 kts | 2° |
| 2026-05-03 20:54 | 29.13665 | -13.42624 | 10380 ft | 291 kts | 338° |
| 2026-05-03 20:54 | 29.16741 | -13.45863 | 10795 ft | 327 kts | 293° |
| 2026-05-03 20:54 | 29.17341 | -13.48437 | 11081 ft | 341 kts | 273° |
| 2026-05-03 20:55 | 29.17076 | -13.51106 | 11727 ft | 344 kts | 254° |
| 2026-05-03 20:55 | 29.16371 | -13.53732 | 12507 ft | 345 kts | 253° |
| 2026-05-03 20:55 | 29.15675 | -13.56384 | 13204 ft | 348 kts | 254° |
| 2026-05-03 20:55 | 29.15004 | -13.59064 | 13913 ft | 351 kts | 255° |
| 2026-05-03 20:56 | 29.14355 | -13.61772 | 14575 ft | 354 kts | 256° |
| 2026-05-03 20:56 | 29.13730 | -13.64474 | 15266 ft | 356 kts | 256° |
| 2026-05-03 20:56 | 29.13108 | -13.67226 | 15971 ft | 358 kts | 256° |
| 2026-05-03 20:56 | 29.12492 | -13.69995 | 16661 ft | 360 kts | 256° |
| 2026-05-03 20:57 | 29.11876 | -13.72789 | 17331 ft | 363 kts | 256° |
| 2026-05-03 20:57 | 29.11257 | -13.75608 | 17989 ft | 366 kts | 256° |
| 2026-05-03 20:57 | 29.10642 | -13.78409 | 18586 ft | 369 kts | 256° |
| 2026-05-03 20:57 | 29.10015 | -13.81273 | 19135 ft | 372 kts | 256° |
| 2026-05-03 20:58 | 29.09379 | -13.84169 | 19693 ft | 375 kts | 256° |
| 2026-05-03 20:58 | 29.08747 | -13.87052 | 20258 ft | 377 kts | 256° |
| 2026-05-03 20:58 | 29.08103 | -13.89980 | 20810 ft | 380 kts | 256° |
| 2026-05-03 20:58 | 29.07454 | -13.92931 | 21359 ft | 383 kts | 256° |
| 2026-05-03 20:59 | 29.06809 | -13.95858 | 21894 ft | 386 kts | 256° |
| 2026-05-03 20:59 | 29.06149 | -13.98850 | 22455 ft | 387 kts | 255° |
| 2026-05-03 20:59 | 29.05492 | -14.01829 | 23161 ft | 385 kts | 255° |
| 2026-05-03 20:59 | 29.04836 | -14.04797 | 23838 ft | 383 kts | 255° |
| 2026-05-03 21:00 | 29.04191 | -14.07714 | 24071 ft | 381 kts | 255° |
| 2026-05-03 21:00 | 29.03754 | -14.09687 | 24100 ft | 380 kts | 255° |
| 2026-05-03 21:00 | 29.02890 | -14.13585 | 24122 ft | 382 kts | 255° |
| 2026-05-03 21:00 | 29.02236 | -14.16528 | 24130 ft | 382 kts | 255° |
| 2026-05-03 21:01 | 29.01580 | -14.19482 | 24132 ft | 382 kts | 255° |
| 2026-05-03 21:01 | 29.00926 | -14.22424 | 24132 ft | 382 kts | 255° |